Time;durP1;ratioP1;P1;durP2;ratioP2;P2;SDS_P1;SDS_P2;PMS_P1;PMS_P2;Temp;Humidity;BMP_temperature;BMP_pressure;BME280_temperature;BME280_humidity;BME280_pressure;Samples;Min_cycle;Max_cycle;Signal;HPM_P1;HPM_P2
2023/06/18 00:02:17;;;;;;;5.47;4.97;;;;;;;;;;5077975;28;20411;-75
2023/06/18 00:04:43;;;;;;;5.83;5.23;;;;;;;;;;5078264;28;20410;-75
2023/06/18 00:07:09;;;;;;;6.47;4.30;;;;;;;;;;5078313;28;20438;-75
2023/06/18 00:09:35;;;;;;;7.27;4.80;;;;;;;;;;5077571;28;20789;-75
2023/06/18 00:12:01;;;;;;;5.20;4.70;;;;;;;;;;5077785;28;20403;-75
2023/06/18 00:14:27;;;;;;;6.20;5.00;;;;;;;;;;5077760;28;20415;-75
2023/06/18 00:16:53;;;;;;;5.23;4.73;;;;;;;;;;5078396;28;20470;-75
2023/06/18 00:19:19;;;;;;;7.10;6.10;;;;;;;;;;5077671;28;20404;-75
2023/06/18 00:21:46;;;;;;;5.47;4.80;;;;;;;;;;5077718;28;20406;-75
2023/06/18 00:24:12;;;;;;;6.23;4.93;;;;;;;;;;5077839;28;20762;-76
2023/06/18 00:26:38;;;;;;;7.07;5.07;;;;;;;;;;5077931;28;20403;-75
2023/06/18 00:29:04;;;;;;;7.50;4.97;;;;;;;;;;5077758;28;20430;-75
2023/06/18 00:31:32;;;;;;;5.27;4.53;;;;;;;;;;5076605;28;20391;-75
2023/06/18 00:34:04;;;;;;;5.10;4.40;;;;;;;;;;5077043;28;20891;-75
2023/06/18 00:36:31;;;;;;;5.83;5.27;;;;;;;;;;5076101;28;20494;-75
2023/06/18 00:38:57;;;;;;;6.30;5.50;;;;;;;;;;5077785;28;20422;-75
2023/06/18 00:41:27;;;;;;;5.83;4.40;;;;;;;;;;5077183;28;20418;-75
2023/06/18 00:43:53;;;;;;;6.07;4.60;;;;;;;;;;5077665;28;20422;-75
2023/06/18 00:46:19;;;;;;;7.33;5.33;;;;;;;;;;5077121;28;20405;-75
2023/06/18 00:48:45;;;;;;;5.63;4.80;;;;;;;;;;5077567;28;20484;-75
2023/06/18 00:51:12;;;;;;;5.53;4.77;;;;;;;;;;5077608;28;20395;-75
2023/06/18 00:53:38;;;;;;;8.20;4.60;;;;;;;;;;5076996;28;20407;-75
2023/06/18 00:56:04;;;;;;;7.20;4.90;;;;;;;;;;5077026;28;20434;-75
2023/06/18 00:58:31;;;;;;;4.80;4.40;;;;;;;;;;5076523;28;20737;-75
2023/06/18 01:00:57;;;;;;;8.83;5.30;;;;;;;;;;5076924;28;20397;-75
2023/06/18 01:03:25;;;;;;;5.20;4.70;;;;;;;;;;5076261;28;20841;-75
2023/06/18 01:05:57;;;;;;;5.90;4.97;;;;;;;;;;5076381;28;20415;-75
2023/06/18 01:08:23;;;;;;;7.13;5.00;;;;;;;;;;5076531;28;20410;-75
2023/06/18 01:10:55;;;;;;;4.97;4.33;;;;;;;;;;5076798;28;20411;-75
2023/06/18 01:13:21;;;;;;;6.03;3.97;;;;;;;;;;5076312;28;20410;-75
2023/06/18 01:15:47;;;;;;;6.33;4.73;;;;;;;;;;5076614;28;20407;-75
2023/06/18 01:18:14;;;;;;;7.17;5.17;;;;;;;;;;5076789;28;20426;-75
2023/06/18 01:20:41;;;;;;;5.17;4.50;;;;;;;;;;5076074;28;20469;-75
2023/06/18 01:23:27;;;;;;;7.17;4.97;;;;;;;;;;5076459;28;20409;-74
2023/06/18 01:25:55;;;;;;;5.70;4.60;;;;;;;;;;5076267;28;20410;-75
2023/06/18 01:28:22;;;;;;;7.80;5.20;;;;;;;;;;5076438;28;20408;-75
2023/06/18 01:30:48;;;;;;;5.87;4.60;;;;;;;;;;5076688;28;20439;-75
2023/06/18 01:33:14;;;;;;;6.63;5.20;;;;;;;;;;5076470;28;20482;-75
2023/06/18 01:35:41;;;;;;;5.90;5.00;;;;;;;;;;5075910;28;20497;-75
2023/06/18 01:38:25;;;;;;;6.70;4.50;;;;;;;;;;5076136;28;20936;-74
2023/06/18 01:40:51;;;;;;;6.03;4.83;;;;;;;;;;5076287;28;20395;-75
2023/06/18 01:43:32;;;;;;;10.23;5.00;;;;;;;;;;5076351;28;20406;-77
2023/06/18 01:46:02;;;;;;;6.43;4.50;;;;;;;;;;5076254;28;20745;-76
2023/06/18 01:48:29;;;;;;;8.90;5.00;;;;;;;;;;5076158;28;20414;-76
2023/06/18 01:50:56;;;;;;;6.43;5.17;;;;;;;;;;5076593;28;20836;-76
2023/06/18 01:53:22;;;;;;;6.60;5.20;;;;;;;;;;5075787;28;20399;-76
2023/06/18 01:55:51;;;;;;;4.60;4.20;;;;;;;;;;5076224;28;20391;-76
2023/06/18 01:58:17;;;;;;;9.27;4.53;;;;;;;;;;5076297;28;20369;-76
2023/06/18 02:00:43;;;;;;;5.87;5.10;;;;;;;;;;5075627;28;20433;-76
2023/06/18 02:03:09;;;;;;;5.50;4.60;;;;;;;;;;5076057;28;20393;-75
2023/06/18 02:05:35;;;;;;;6.27;4.30;;;;;;;;;;5057408;28;20427;-76
2023/06/18 02:08:01;;;;;;;6.23;4.50;;;;;;;;;;5075384;28;20490;-76
2023/06/18 02:10:27;;;;;;;5.80;4.27;;;;;;;;;;5075444;28;20958;-76
2023/06/18 02:12:53;;;;;;;6.50;4.80;;;;;;;;;;5076152;28;20435;-76
2023/06/18 02:15:21;;;;;;;5.57;4.80;;;;;;;;;;5075583;28;20430;-78
2023/06/18 02:17:47;;;;;;;5.50;4.70;;;;;;;;;;5057803;28;21028;-76
2023/06/18 02:20:13;;;;;;;6.50;5.10;;;;;;;;;;5075494;28;20399;-76
2023/06/18 02:22:39;;;;;;;5.70;4.73;;;;;;;;;;5075699;28;20464;-76
2023/06/18 02:25:05;;;;;;;4.90;4.40;;;;;;;;;;5058351;28;20972;-76
2023/06/18 02:27:31;;;;;;;6.63;5.23;;;;;;;;;;5075547;28;20412;-76
2023/06/18 02:30:00;;;;;;;5.43;4.80;;;;;;;;;;5075834;28;20410;-76
2023/06/18 02:32:28;;;;;;;5.70;5.00;;;;;;;;;;5075733;28;20442;-76
2023/06/18 02:34:55;;;;;;;6.83;4.27;;;;;;;;;;5057662;28;20942;-75
2023/06/18 02:37:21;;;;;;;5.07;4.53;;;;;;;;;;5075583;28;20965;-78
2023/06/18 02:39:47;;;;;;;5.43;4.93;;;;;;;;;;5075577;28;20442;-76
2023/06/18 02:42:13;;;;;;;9.20;5.17;;;;;;;;;;5075584;28;20464;-76
2023/06/18 02:44:41;;;;;;;4.30;3.90;;;;;;;;;;5075566;28;20378;-75
2023/06/18 02:47:08;;;;;;;5.87;4.73;;;;;;;;;;5075439;28;20422;-75
2023/06/18 02:49:34;;;;;;;8.57;5.10;;;;;;;;;;5075424;28;20409;-76
2023/06/18 02:52:00;;;;;;;4.27;3.87;;;;;;;;;;5074997;28;20362;-76
2023/06/18 02:54:26;;;;;;;6.50;4.60;;;;;;;;;;5075032;28;20464;-76
2023/06/18 02:56:52;;;;;;;4.70;4.07;;;;;;;;;;5075457;28;20462;-76
2023/06/18 02:59:18;;;;;;;10.03;4.93;;;;;;;;;;5075736;28;20747;-75
2023/06/18 03:01:48;;;;;;;6.60;4.63;;;;;;;;;;5075184;28;20775;-76
2023/06/18 03:04:14;;;;;;;5.57;4.43;;;;;;;;;;5074956;28;20408;-76
2023/06/18 03:06:40;;;;;;;5.80;5.20;;;;;;;;;;5075300;28;20415;-75
2023/06/18 03:09:06;;;;;;;5.00;4.50;;;;;;;;;;5075279;28;20414;-76
2023/06/18 03:11:32;;;;;;;4.87;4.30;;;;;;;;;;5075438;28;20419;-76
2023/06/18 03:13:58;;;;;;;4.90;4.30;;;;;;;;;;5075317;28;20926;-76
2023/06/18 03:16:26;;;;;;;5.90;4.77;;;;;;;;;;5056822;28;20463;-76
2023/06/18 03:18:52;;;;;;;4.83;4.20;;;;;;;;;;5076212;28;20407;-76
2023/06/18 03:21:18;;;;;;;5.33;4.30;;;;;;;;;;5079643;28;20414;-75
2023/06/18 03:23:44;;;;;;;6.97;4.70;;;;;;;;;;5079284;28;20414;-75
2023/06/18 03:26:11;;;;;;;5.20;4.60;;;;;;;;;;5079443;28;20421;-75
2023/06/18 03:28:37;;;;;;;5.33;4.40;;;;;;;;;;5078992;28;20418;-76
2023/06/18 03:31:03;;;;;;;7.20;5.00;;;;;;;;;;5079101;28;20803;-75
2023/06/18 03:33:30;;;;;;;5.43;4.53;;;;;;;;;;5078685;28;20403;-76
2023/06/18 03:35:59;;;;;;;6.10;5.00;;;;;;;;;;5069474;28;20480;-75
2023/06/18 03:38:26;;;;;;;5.03;4.53;;;;;;;;;;5098641;28;20493;-76
2023/06/18 03:40:52;;;;;;;5.83;5.17;;;;;;;;;;5099835;28;20977;-75
2023/06/18 03:43:18;;;;;;;4.90;4.40;;;;;;;;;;5099140;28;20406;-75
2023/06/18 03:45:44;;;;;;;5.93;4.80;;;;;;;;;;5098935;28;20376;-75
2023/06/18 03:48:10;;;;;;;5.57;4.97;;;;;;;;;;5099685;28;20430;-75
2023/06/18 03:50:36;;;;;;;5.07;4.10;;;;;;;;;;5099196;28;20417;-75
2023/06/18 03:53:02;;;;;;;7.23;4.63;;;;;;;;;;5098766;28;20384;-76
2023/06/18 03:55:28;;;;;;;5.23;4.47;;;;;;;;;;5098925;28;20415;-76
2023/06/18 03:57:54;;;;;;;6.10;5.03;;;;;;;;;;5098918;28;20453;-75
2023/06/18 04:00:21;;;;;;;5.47;4.37;;;;;;;;;;5098468;28;20407;-76
2023/06/18 04:02:47;;;;;;;6.13;5.00;;;;;;;;;;5098690;28;20381;-76
2023/06/18 04:05:13;;;;;;;6.00;4.23;;;;;;;;;;5098259;28;20410;-76
2023/06/18 04:07:39;;;;;;;5.87;4.47;;;;;;;;;;5098945;28;20425;-76
2023/06/18 04:10:05;;;;;;;6.00;4.80;;;;;;;;;;5098884;28;20403;-75
2023/06/18 04:12:31;;;;;;;6.63;5.40;;;;;;;;;;5098399;28;20568;-76
2023/06/18 04:14:57;;;;;;;7.20;4.70;;;;;;;;;;5098457;28;20460;-75
2023/06/18 04:17:26;;;;;;;5.77;4.60;;;;;;;;;;5098569;28;20465;-75
2023/06/18 04:19:52;;;;;;;5.27;4.63;;;;;;;;;;5098910;28;20463;-75
2023/06/18 04:22:18;;;;;;;5.40;4.60;;;;;;;;;;5098360;28;20374;-76
2023/06/18 04:24:44;;;;;;;5.70;4.60;;;;;;;;;;5098726;28;20452;-75
2023/06/18 04:27:11;;;;;;;4.93;4.43;;;;;;;;;;5098566;28;20422;-75
2023/06/18 04:29:37;;;;;;;5.90;4.60;;;;;;;;;;5097775;28;20437;-75
2023/06/18 04:32:03;;;;;;;5.07;4.30;;;;;;;;;;5098363;28;20886;-75
2023/06/18 04:34:29;;;;;;;5.30;4.70;;;;;;;;;;5098266;28;20406;-76
2023/06/18 04:36:55;;;;;;;8.70;4.80;;;;;;;;;;5083450;28;20457;-75
2023/06/18 04:39:21;;;;;;;4.80;4.40;;;;;;;;;;5078358;28;20418;-75
2023/06/18 04:41:47;;;;;;;6.53;4.67;;;;;;;;;;5077957;28;20386;-75
2023/06/18 04:44:13;;;;;;;5.80;4.20;;;;;;;;;;5077907;28;20433;-75
2023/06/18 04:46:41;;;;;;;7.03;5.43;;;;;;;;;;5077102;28;20423;-76
2023/06/18 04:49:07;;;;;;;5.53;4.63;;;;;;;;;;5077507;28;20498;-75
2023/06/18 04:51:33;;;;;;;10.83;4.90;;;;;;;;;;5077684;28;20825;-76
2023/06/18 04:53:59;;;;;;;8.40;4.83;;;;;;;;;;5077943;28;20419;-76
2023/06/18 04:56:26;;;;;;;4.53;3.67;;;;;;;;;;5077734;28;20455;-75
2023/06/18 04:58:52;;;;;;;5.13;4.47;;;;;;;;;;5077732;28;20493;-76
2023/06/18 05:01:20;;;;;;;6.33;4.70;;;;;;;;;;5077230;28;20407;-76
2023/06/18 05:03:46;;;;;;;7.73;4.40;;;;;;;;;;5077953;28;20427;-75
2023/06/18 05:06:12;;;;;;;7.13;4.60;;;;;;;;;;5077361;28;20825;-76
2023/06/18 05:08:38;;;;;;;4.97;4.47;;;;;;;;;;5077223;28;20408;-76
2023/06/18 05:11:04;;;;;;;8.57;5.20;;;;;;;;;;5077457;28;20476;-75
2023/06/18 05:13:30;;;;;;;5.07;4.57;;;;;;;;;;5077448;28;20399;-77
2023/06/18 05:15:56;;;;;;;5.63;5.13;;;;;;;;;;5077662;28;20748;-76
2023/06/18 05:18:22;;;;;;;10.73;5.50;;;;;;;;;;5077778;28;20407;-76
2023/06/18 05:20:48;;;;;;;7.20;5.80;;;;;;;;;;5077228;28;20429;-76
2023/06/18 05:23:14;;;;;;;5.73;4.67;;;;;;;;;;5077195;28;20407;-74
2023/06/18 05:25:40;;;;;;;6.63;5.23;;;;;;;;;;5076980;28;20408;-74
2023/06/18 05:28:06;;;;;;;7.03;5.80;;;;;;;;;;5077413;28;20426;-74
2023/06/18 05:30:32;;;;;;;10.70;6.53;;;;;;;;;;5076817;28;20403;-74
2023/06/18 05:32:58;;;;;;;7.13;5.13;;;;;;;;;;5077054;28;20403;-76
2023/06/18 05:35:24;;;;;;;6.23;5.63;;;;;;;;;;5076882;28;20822;-76
2023/06/18 05:37:50;;;;;;;6.83;6.23;;;;;;;;;;5076738;28;20477;-76
2023/06/18 05:40:17;;;;;;;8.27;5.40;;;;;;;;;;5077490;28;20406;-76
2023/06/18 05:42:43;;;;;;;6.40;5.20;;;;;;;;;;5075627;28;20482;-76
2023/06/18 05:45:09;;;;;;;8.57;5.87;;;;;;;;;;5076439;28;20489;-74
2023/06/18 05:47:35;;;;;;;8.30;5.67;;;;;;;;;;5076723;28;20766;-74
2023/06/18 05:50:01;;;;;;;6.43;5.43;;;;;;;;;;5076963;28;20497;-74
2023/06/18 05:52:27;;;;;;;7.73;5.90;;;;;;;;;;5076739;28;20395;-76
2023/06/18 05:54:53;;;;;;;6.03;5.43;;;;;;;;;;5076147;28;20400;-74
2023/06/18 05:57:19;;;;;;;6.07;5.53;;;;;;;;;;5076403;28;20475;-74
2023/06/18 05:59:47;;;;;;;10.93;6.47;;;;;;;;;;5076585;28;20407;-74
2023/06/18 06:02:13;;;;;;;7.13;5.53;;;;;;;;;;5076119;28;20407;-74
2023/06/18 06:04:39;;;;;;;9.87;5.90;;;;;;;;;;5076100;28;20408;-74
2023/06/18 06:07:05;;;;;;;7.53;6.53;;;;;;;;;;5076430;28;20787;-74
2023/06/18 06:09:31;;;;;;;7.10;6.40;;;;;;;;;;5076293;28;20421;-75
2023/06/18 06:11:57;;;;;;;6.77;6.20;;;;;;;;;;5076109;28;20399;-75
2023/06/18 06:14:23;;;;;;;7.57;6.77;;;;;;;;;;5076441;28;20395;-75
2023/06/18 06:16:51;;;;;;;6.97;6.27;;;;;;;;;;5075800;28;20497;-76
2023/06/18 06:19:17;;;;;;;12.57;6.37;;;;;;;;;;5075923;28;20407;-75
2023/06/18 06:21:43;;;;;;;7.00;5.70;;;;;;;;;;5075984;28;20407;-76
2023/06/18 06:24:10;;;;;;;7.63;5.70;;;;;;;;;;5076156;28;20430;-76
2023/06/18 06:26:36;;;;;;;9.50;6.13;;;;;;;;;;5075370;28;20403;-76
2023/06/18 06:29:02;;;;;;;8.20;6.13;;;;;;;;;;5075800;28;20934;-76
2023/06/18 06:31:28;;;;;;;10.37;6.10;;;;;;;;;;5075931;28;20498;-76
2023/06/18 06:33:54;;;;;;;12.00;6.30;;;;;;;;;;5075605;28;20818;-77
2023/06/18 06:36:20;;;;;;;7.23;6.53;;;;;;;;;;5075606;28;20475;-76
2023/06/18 06:38:46;;;;;;;6.70;6.00;;;;;;;;;;5075525;28;20400;-78
2023/06/18 06:41:12;;;;;;;9.50;6.00;;;;;;;;;;5075297;28;20932;-76
2023/06/18 06:43:38;;;;;;;5.67;5.17;;;;;;;;;;5075579;28;20494;-77
2023/06/18 06:46:04;;;;;;;13.30;6.13;;;;;;;;;;5075922;28;20395;-76
2023/06/18 06:48:30;;;;;;;9.00;5.90;;;;;;;;;;5057942;28;20427;-76
2023/06/18 06:50:56;;;;;;;8.30;6.30;;;;;;;;;;5074857;28;20823;-77
2023/06/18 06:53:22;;;;;;;7.10;5.70;;;;;;;;;;5077928;28;20406;-76
2023/06/18 06:55:49;;;;;;;11.43;6.30;;;;;;;;;;5079584;28;20407;-75
2023/06/18 06:58:15;;;;;;;7.53;6.40;;;;;;;;;;5079636;28;20478;-75
2023/06/18 07:00:41;;;;;;;7.83;6.20;;;;;;;;;;5079655;28;20395;-75
2023/06/18 07:03:08;;;;;;;7.27;6.03;;;;;;;;;;5079463;28;20750;-77
2023/06/18 07:05:34;;;;;;;7.70;5.90;;;;;;;;;;5077996;28;20426;-77
2023/06/18 07:08:02;;;;;;;7.40;5.93;;;;;;;;;;5078045;28;20403;-78
2023/06/18 07:10:28;;;;;;;8.73;6.23;;;;;;;;;;5078377;28;20467;-77
2023/06/18 07:12:54;;;;;;;6.67;5.77;;;;;;;;;;5078267;28;20415;-78
2023/06/18 07:15:20;;;;;;;5.90;5.30;;;;;;;;;;5078159;28;20411;-78
2023/06/18 07:17:46;;;;;;;7.70;5.20;;;;;;;;;;5078287;28;20465;-78
2023/06/18 07:20:12;;;;;;;7.40;6.20;;;;;;;;;;5078121;28;20411;-79
2023/06/18 07:22:38;;;;;;;7.90;5.33;;;;;;;;;;5059946;28;20415;-80
2023/06/18 07:25:04;;;;;;;7.30;6.10;;;;;;;;;;5077918;28;20453;-78
2023/06/18 07:27:31;;;;;;;7.43;5.27;;;;;;;;;;5078472;28;20422;-75
2023/06/18 07:29:57;;;;;;;7.13;5.70;;;;;;;;;;5079425;28;20411;-74
2023/06/18 07:32:23;;;;;;;6.03;5.50;;;;;;;;;;5079323;28;20423;-74
2023/06/18 07:34:49;;;;;;;8.00;5.17;;;;;;;;;;5078645;28;20411;-75
2023/06/18 07:37:15;;;;;;;6.00;5.50;;;;;;;;;;5078540;28;20490;-74
2023/06/18 07:39:41;;;;;;;8.80;6.47;;;;;;;;;;5078152;28;20391;-74
2023/06/18 07:42:07;;;;;;;6.53;5.20;;;;;;;;;;5078687;28;20395;-74
2023/06/18 07:44:33;;;;;;;6.27;4.73;;;;;;;;;;5078640;28;20431;-74
2023/06/18 07:47:00;;;;;;;8.90;4.97;;;;;;;;;;5078724;28;20410;-74
2023/06/18 07:49:26;;;;;;;6.57;5.70;;;;;;;;;;5078594;28;20429;-74
2023/06/18 07:51:52;;;;;;;5.10;4.60;;;;;;;;;;5078496;28;20769;-74
2023/06/18 07:54:18;;;;;;;5.63;5.03;;;;;;;;;;5078395;28;20415;-74
2023/06/18 07:56:44;;;;;;;7.70;4.87;;;;;;;;;;5078617;28;21057;-74
2023/06/18 07:59:10;;;;;;;6.00;5.20;;;;;;;;;;5078694;28;20407;-74
2023/06/18 08:01:36;;;;;;;5.73;5.07;;;;;;;;;;5078427;28;20400;-74
2023/06/18 08:04:02;;;;;;;6.60;5.40;;;;;;;;;;5077303;28;20461;-74
2023/06/18 08:06:28;;;;;;;5.00;4.50;;;;;;;;;;5077892;28;20427;-74
2023/06/18 08:08:54;;;;;;;5.47;4.97;;;;;;;;;;5077943;28;20427;-74
2023/06/18 08:11:20;;;;;;;5.20;4.43;;;;;;;;;;5078070;28;20502;-74
2023/06/18 08:13:46;;;;;;;8.37;5.53;;;;;;;;;;5077217;28;20441;-74
2023/06/18 08:16:12;;;;;;;5.67;4.93;;;;;;;;;;5077478;28;20407;-74
2023/06/18 08:18:38;;;;;;;5.93;5.13;;;;;;;;;;5077441;28;20396;-74
2023/06/18 08:21:04;;;;;;;6.50;5.23;;;;;;;;;;5077168;28;20422;-74
2023/06/18 08:23:30;;;;;;;6.50;5.90;;;;;;;;;;5077258;28;20482;-74
2023/06/18 08:25:56;;;;;;;6.40;4.30;;;;;;;;;;5077138;28;20445;-74
2023/06/18 08:28:23;;;;;;;6.63;4.90;;;;;;;;;;5077704;28;20404;-74
2023/06/18 08:30:49;;;;;;;5.63;5.13;;;;;;;;;;5076880;28;20402;-74
2023/06/18 08:33:16;;;;;;;6.57;4.83;;;;;;;;;;5076904;28;20852;-74
2023/06/18 08:35:42;;;;;;;5.53;4.40;;;;;;;;;;5076312;28;20554;-74
2023/06/18 08:38:08;;;;;;;4.40;4.10;;;;;;;;;;5076558;28;20467;-74
2023/06/18 08:40:43;;;;;;;6.43;4.57;;;;;;;;;;5067250;28;20423;-83
2023/06/18 08:43:12;;;;;;;5.70;4.80;;;;;;;;;;5060932;28;20415;-83
2023/06/18 08:45:39;;;;;;;5.93;4.90;;;;;;;;;;5055685;28;20424;-83
2023/06/18 08:48:07;;;;;;;6.70;4.83;;;;;;;;;;5073180;28;20915;-83
2023/06/18 08:50:33;;;;;;;5.10;4.70;;;;;;;;;;5057446;28;20416;-83
2023/06/18 08:53:05;;;;;;;8.23;4.97;;;;;;;;;;5054967;28;20400;-85
2023/06/18 08:55:32;;;;;;;13.40;5.30;;;;;;;;;;5055169;28;20766;-83
2023/06/18 08:58:10;;;;;;;7.33;5.07;;;;;;;;;;5054920;28;20514;-83
2023/06/18 09:00:36;;;;;;;10.03;5.13;;;;;;;;;;5055258;28;20747;-84
2023/06/18 09:03:04;;;;;;;9.03;4.87;;;;;;;;;;5054690;28;20397;-83
2023/06/18 09:05:31;;;;;;;6.90;4.70;;;;;;;;;;5054172;28;20420;-83
2023/06/18 09:07:57;;;;;;;8.40;5.40;;;;;;;;;;5053615;28;20965;-82
2023/06/18 09:10:24;;;;;;;6.60;4.80;;;;;;;;;;5054514;28;20409;-83
2023/06/18 09:12:50;;;;;;;7.40;4.23;;;;;;;;;;5054303;28;20479;-83
2023/06/18 09:15:16;;;;;;;6.97;4.33;;;;;;;;;;5054339;28;20446;-83
2023/06/18 09:17:48;;;;;;;6.47;4.40;;;;;;;;;;5053484;28;20972;-83
2023/06/18 09:20:18;;;;;;;7.50;4.47;;;;;;;;;;5054684;28;20400;-83
2023/06/18 09:22:45;;;;;;;6.93;4.90;;;;;;;;;;5054643;28;20487;-83
2023/06/18 09:25:11;;;;;;;4.70;4.30;;;;;;;;;;5054289;28;20424;-83
2023/06/18 09:27:40;;;;;;;7.13;4.97;;;;;;;;;;5054200;28;20439;-83
2023/06/18 09:30:07;;;;;;;7.53;5.03;;;;;;;;;;5054135;28;20412;-82
2023/06/18 09:32:45;;;;;;;7.87;4.90;;;;;;;;;;5054476;28;20404;-83
2023/06/18 09:35:13;;;;;;;5.27;4.07;;;;;;;;;;5054199;28;20411;-83
2023/06/18 09:37:39;;;;;;;4.87;4.30;;;;;;;;;;5053731;28;20460;-74
2023/06/18 09:40:14;;;;;;;9.53;4.70;;;;;;;;;;5054094;28;20896;-75
2023/06/18 09:42:40;;;;;;;4.87;4.43;;;;;;;;;;5054293;28;20407;-72
2023/06/18 09:45:06;;;;;;;5.97;4.40;;;;;;;;;;5053521;28;20458;-72
2023/06/18 09:47:32;;;;;;;5.70;4.50;;;;;;;;;;5054035;28;20478;-72
2023/06/18 09:49:59;;;;;;;4.80;4.40;;;;;;;;;;5053637;28;20847;-71
2023/06/18 09:52:27;;;;;;;4.37;3.97;;;;;;;;;;5053478;28;20400;-72
2023/06/18 09:54:53;;;;;;;5.27;4.87;;;;;;;;;;5053642;28;20405;-72
2023/06/18 09:57:19;;;;;;;5.40;4.90;;;;;;;;;;5053849;28;20474;-74
2023/06/18 09:59:45;;;;;;;8.93;4.97;;;;;;;;;;5053802;28;20427;-74
2023/06/18 10:02:14;;;;;;;4.40;4.00;;;;;;;;;;5053535;28;20503;-74
2023/06/18 10:04:40;;;;;;;4.93;4.43;;;;;;;;;;5053590;28;20457;-72
2023/06/18 10:07:15;;;;;;;4.50;4.10;;;;;;;;;;5053577;28;20420;-72
2023/06/18 10:09:42;;;;;;;4.73;4.33;;;;;;;;;;5053618;28;20407;-73
2023/06/18 10:12:08;;;;;;;4.33;3.93;;;;;;;;;;5053350;28;20423;-74
2023/06/18 10:14:35;;;;;;;5.70;4.10;;;;;;;;;;5053629;28;20438;-73
2023/06/18 10:17:01;;;;;;;7.07;4.83;;;;;;;;;;5053208;28;20916;-74
2023/06/18 10:19:29;;;;;;;4.43;4.07;;;;;;;;;;5053363;28;20458;-74
2023/06/18 10:21:57;;;;;;;5.73;4.57;;;;;;;;;;5053091;28;20401;-74
2023/06/18 10:24:24;;;;;;;7.57;4.37;;;;;;;;;;5053428;28;20412;-74
2023/06/18 10:26:52;;;;;;;6.13;4.77;;;;;;;;;;5052851;28;20406;-74
2023/06/18 10:29:18;;;;;;;4.73;4.33;;;;;;;;;;5052947;28;20396;-74
2023/06/18 10:31:44;;;;;;;7.10;4.57;;;;;;;;;;5052988;28;20397;-74
2023/06/18 10:34:11;;;;;;;4.30;3.93;;;;;;;;;;5052557;28;20435;-73
2023/06/18 10:36:37;;;;;;;5.13;4.57;;;;;;;;;;5052691;28;20491;-74
2023/06/18 10:39:05;;;;;;;4.87;4.47;;;;;;;;;;5052608;28;20475;-73
2023/06/18 10:41:31;;;;;;;5.93;4.77;;;;;;;;;;5052830;28;20443;-75
2023/06/18 10:43:58;;;;;;;4.93;4.40;;;;;;;;;;5052515;28;20798;-73
2023/06/18 10:46:24;;;;;;;5.30;4.70;;;;;;;;;;5052899;28;20935;-73
2023/06/18 10:49:08;;;;;;;5.30;4.80;;;;;;;;;;5052792;28;20799;-79
2023/06/18 10:51:34;;;;;;;5.33;4.47;;;;;;;;;;5052741;28;20860;-76
2023/06/18 10:54:19;;;;;;;5.53;4.63;;;;;;;;;;5052609;28;20435;-75
2023/06/18 10:56:52;;;;;;;4.37;3.97;;;;;;;;;;5052558;28;20451;-75
2023/06/18 10:59:37;;;;;;;7.07;4.80;;;;;;;;;;5052716;28;20746;-75
2023/06/18 11:02:03;;;;;;;5.60;4.97;;;;;;;;;;5052582;28;20849;-73
2023/06/18 11:04:31;;;;;;;6.57;5.20;;;;;;;;;;5052734;28;20392;-73
2023/06/18 11:07:12;;;;;;;4.83;4.43;;;;;;;;;;5052409;28;20467;-73
2023/06/18 11:09:52;;;;;;;6.00;5.07;;;;;;;;;;5052307;28;20466;-73
2023/06/18 11:12:19;;;;;;;7.87;4.77;;;;;;;;;;5052679;28;20400;-75
2023/06/18 11:15:04;;;;;;;4.80;4.40;;;;;;;;;;5052604;28;20419;-75
2023/06/18 11:17:30;;;;;;;6.00;5.40;;;;;;;;;;5052386;28;20455;-74
2023/06/18 11:19:56;;;;;;;5.60;5.00;;;;;;;;;;5052202;28;20440;-74
2023/06/18 11:22:22;;;;;;;5.53;5.00;;;;;;;;;;5052128;28;20423;-74
2023/06/18 11:24:48;;;;;;;6.93;4.87;;;;;;;;;;5052673;28;20400;-74
2023/06/18 11:27:15;;;;;;;6.77;5.07;;;;;;;;;;5052250;28;20416;-75
2023/06/18 11:29:41;;;;;;;7.33;5.20;;;;;;;;;;5052567;28;20414;-74
2023/06/18 11:32:14;;;;;;;5.07;4.67;;;;;;;;;;5052319;28;20440;-74
2023/06/18 11:34:41;;;;;;;6.47;4.93;;;;;;;;;;5052356;28;20737;-74
2023/06/18 11:37:07;;;;;;;6.47;5.30;;;;;;;;;;5052248;28;20495;-74
2023/06/18 11:39:34;;;;;;;5.00;4.50;;;;;;;;;;5053010;28;20415;-73
2023/06/18 11:42:18;;;;;;;5.00;4.60;;;;;;;;;;5055896;28;20404;-74
2023/06/18 11:44:47;;;;;;;7.20;5.67;;;;;;;;;;5055869;28;20917;-74
2023/06/18 11:47:14;;;;;;;7.13;5.00;;;;;;;;;;5055674;28;20424;-74
2023/06/18 11:49:43;;;;;;;6.50;5.00;;;;;;;;;;5055878;28;20470;-74
2023/06/18 11:52:10;;;;;;;5.50;5.00;;;;;;;;;;5055709;28;20814;-74
2023/06/18 11:54:40;;;;;;;5.77;5.00;;;;;;;;;;5055818;28;20408;-74
2023/06/18 11:57:13;;;;;;;8.50;4.73;;;;;;;;;;5055719;28;20537;-74
2023/06/18 11:59:40;;;;;;;6.07;4.80;;;;;;;;;;5055710;28;20404;-74
2023/06/18 12:02:13;;;;;;;7.33;4.40;;;;;;;;;;5055568;28;20407;-74
2023/06/18 12:04:40;;;;;;;5.67;4.80;;;;;;;;;;5055778;28;20492;-74
2023/06/18 12:07:06;;;;;;;6.77;4.70;;;;;;;;;;5055125;28;20455;-74
2023/06/18 12:09:33;;;;;;;5.30;4.80;;;;;;;;;;5055369;28;20418;-74
2023/06/18 12:12:20;;;;;;;5.93;4.27;;;;;;;;;;5055132;28;20907;-75
2023/06/18 12:14:56;;;;;;;9.57;5.13;;;;;;;;;;5055871;28;20396;-74
2023/06/18 12:17:22;;;;;;;4.70;4.30;;;;;;;;;;5055358;28;20509;-74
2023/06/18 12:19:51;;;;;;;5.03;4.53;;;;;;;;;;5055229;28;20431;-74
2023/06/18 12:22:17;;;;;;;8.27;5.50;;;;;;;;;;5054961;28;20407;-74
2023/06/18 12:24:44;;;;;;;7.30;5.23;;;;;;;;;;5055300;28;20408;-74
2023/06/18 12:27:10;;;;;;;6.23;5.43;;;;;;;;;;5055110;28;20831;-77
2023/06/18 12:29:40;;;;;;;6.27;5.50;;;;;;;;;;5055000;28;20923;-74
2023/06/18 12:32:08;;;;;;;5.83;5.30;;;;;;;;;;5054768;28;20400;-74
2023/06/18 12:34:38;;;;;;;8.90;4.90;;;;;;;;;;5055116;28;20490;-74
2023/06/18 12:37:04;;;;;;;7.43;5.23;;;;;;;;;;5054265;28;20582;-74
2023/06/18 12:39:31;;;;;;;10.37;5.67;;;;;;;;;;5054854;28;20436;-74
2023/06/18 12:41:57;;;;;;;5.30;4.80;;;;;;;;;;5055196;28;20416;-78
2023/06/18 12:44:24;;;;;;;6.80;4.27;;;;;;;;;;5055020;28;20461;-74
2023/06/18 12:46:52;;;;;;;5.20;4.70;;;;;;;;;;5054687;28;20517;-77
2023/06/18 12:49:18;;;;;;;6.23;5.07;;;;;;;;;;5055221;28;20416;-75
2023/06/18 12:51:45;;;;;;;5.13;4.63;;;;;;;;;;5066044;28;20920;-75
2023/06/18 12:54:18;;;;;;;5.10;4.60;;;;;;;;;;5054923;28;20458;-75
2023/06/18 12:56:54;;;;;;;6.67;4.83;;;;;;;;;;5054900;28;20452;-75
2023/06/18 12:59:23;;;;;;;6.80;5.30;;;;;;;;;;5054485;28;20454;-76
2023/06/18 13:01:49;;;;;;;5.73;4.83;;;;;;;;;;5054726;28;20900;-75
2023/06/18 13:04:17;;;;;;;6.97;4.83;;;;;;;;;;5054409;28;20482;-75
2023/06/18 13:06:45;;;;;;;6.93;5.00;;;;;;;;;;5054509;28;20473;-75
2023/06/18 13:09:11;;;;;;;6.20;5.13;;;;;;;;;;5073171;28;20434;-75
2023/06/18 13:11:38;;;;;;;7.03;5.30;;;;;;;;;;5074464;28;20408;-73
2023/06/18 13:14:04;;;;;;;8.40;5.60;;;;;;;;;;5072531;28;20495;-72
2023/06/18 13:16:30;;;;;;;7.60;5.20;;;;;;;;;;5074098;28;20499;-73
2023/06/18 13:18:56;;;;;;;5.13;4.63;;;;;;;;;;5074401;28;20431;-73
2023/06/18 13:21:22;;;;;;;6.10;4.57;;;;;;;;;;5073684;28;20411;-73
2023/06/18 13:23:48;;;;;;;5.30;4.90;;;;;;;;;;5073681;28;20833;-73
2023/06/18 13:26:15;;;;;;;7.27;5.00;;;;;;;;;;5073902;28;20444;-73
2023/06/18 13:28:41;;;;;;;5.10;4.70;;;;;;;;;;5074098;28;20411;-73
2023/06/18 13:31:07;;;;;;;4.80;4.30;;;;;;;;;;5073710;28;20525;-73
2023/06/18 13:33:33;;;;;;;5.60;4.70;;;;;;;;;;5073800;28;20507;-73
2023/06/18 13:35:59;;;;;;;6.40;4.80;;;;;;;;;;5073662;28;21047;-75
2023/06/18 13:38:25;;;;;;;6.00;4.67;;;;;;;;;;5069233;28;20808;-75
2023/06/18 13:40:51;;;;;;;5.23;4.63;;;;;;;;;;5061523;28;20516;-73
2023/06/18 13:43:18;;;;;;;5.87;4.77;;;;;;;;;;5053365;28;20408;-74
2023/06/18 13:45:44;;;;;;;4.60;4.30;;;;;;;;;;5072659;28;20407;-76
2023/06/18 13:48:12;;;;;;;6.03;5.20;;;;;;;;;;5073640;28;20514;-73
2023/06/18 13:50:38;;;;;;;4.63;4.10;;;;;;;;;;5073708;28;20501;-73
2023/06/18 13:53:04;;;;;;;5.53;4.70;;;;;;;;;;5073390;28;20487;-73
2023/06/18 13:55:30;;;;;;;5.33;4.87;;;;;;;;;;5073432;28;20526;-73
2023/06/18 13:57:56;;;;;;;4.97;4.57;;;;;;;;;;5054027;28;20455;-73
2023/06/18 14:00:22;;;;;;;7.03;5.53;;;;;;;;;;5053488;28;20408;-73
2023/06/18 14:02:49;;;;;;;8.43;5.50;;;;;;;;;;5053180;28;20412;-73
2023/06/18 14:05:15;;;;;;;5.67;5.17;;;;;;;;;;5053153;28;20412;-74
2023/06/18 14:07:41;;;;;;;5.90;5.30;;;;;;;;;;5054682;28;20424;-74
2023/06/18 14:10:07;;;;;;;5.60;5.20;;;;;;;;;;5055506;28;20408;-73
2023/06/18 14:12:35;;;;;;;5.03;4.63;;;;;;;;;;5059691;28;20777;-73
2023/06/18 14:15:01;;;;;;;5.13;4.50;;;;;;;;;;5063152;28;20439;-74
2023/06/18 14:17:27;;;;;;;5.27;4.77;;;;;;;;;;5054944;28;20897;-73
2023/06/18 14:19:53;;;;;;;7.40;4.47;;;;;;;;;;5073201;28;20506;-73
2023/06/18 14:22:20;;;;;;;4.80;4.40;;;;;;;;;;5073041;28;20407;-73
2023/06/18 14:24:46;;;;;;;4.97;4.57;;;;;;;;;;5073121;28;20453;-73
2023/06/18 14:27:13;;;;;;;5.13;4.63;;;;;;;;;;5054875;28;20951;-74
2023/06/18 14:29:39;;;;;;;5.33;4.67;;;;;;;;;;5072878;28;20895;-73
2023/06/18 14:32:05;;;;;;;5.07;4.57;;;;;;;;;;5073071;28;20413;-73
2023/06/18 14:34:31;;;;;;;5.67;5.20;;;;;;;;;;5073145;28;20407;-73
2023/06/18 14:36:57;;;;;;;5.73;5.23;;;;;;;;;;5072127;28;20478;-73
2023/06/18 14:39:24;;;;;;;5.60;5.10;;;;;;;;;;5054452;28;20411;-76
2023/06/18 14:41:51;;;;;;;5.47;4.97;;;;;;;;;;5073021;28;20399;-76
2023/06/18 14:44:17;;;;;;;4.77;4.47;;;;;;;;;;5072731;28;20411;-76